sensor_id;sensor_type;location;lat;lon;timestamp;temperature;humidity
59128;DHT22;44912;52.754;5.994;2022-08-01T00:01:42;18.30;99.90
59128;DHT22;44912;52.754;5.994;2022-08-01T00:04:08;18.30;99.90
59128;DHT22;44912;52.754;5.994;2022-08-01T00:06:33;18.30;99.90
59128;DHT22;44912;52.754;5.994;2022-08-01T00:08:59;18.30;99.90
59128;DHT22;44912;52.754;5.994;2022-08-01T00:11:25;18.30;99.90
59128;DHT22;44912;52.754;5.994;2022-08-01T00:13:50;18.20;99.90
59128;DHT22;44912;52.754;5.994;2022-08-01T00:16:16;18.20;99.90
59128;DHT22;44912;52.754;5.994;2022-08-01T00:18:42;18.20;99.90
59128;DHT22;44912;52.754;5.994;2022-08-01T00:21:07;18.20;99.90
59128;DHT22;44912;52.754;5.994;2022-08-01T00:23:33;18.20;99.90
59128;DHT22;44912;52.754;5.994;2022-08-01T00:25:58;18.20;99.90
59128;DHT22;44912;52.754;5.994;2022-08-01T00:28:24;18.20;99.90
59128;DHT22;44912;52.754;5.994;2022-08-01T00:30:50;18.20;99.90
59128;DHT22;44912;52.754;5.994;2022-08-01T00:33:15;18.20;99.90
59128;DHT22;44912;52.754;5.994;2022-08-01T00:35:41;18.20;99.90
59128;DHT22;44912;52.754;5.994;2022-08-01T00:38:06;18.20;99.90
59128;DHT22;44912;52.754;5.994;2022-08-01T00:40:32;18.20;99.90
59128;DHT22;44912;52.754;5.994;2022-08-01T00:42:58;18.20;99.90
59128;DHT22;44912;52.754;5.994;2022-08-01T00:45:23;18.20;99.90
59128;DHT22;44912;52.754;5.994;2022-08-01T00:47:49;18.20;99.90
59128;DHT22;44912;52.754;5.994;2022-08-01T00:50:14;18.20;99.90
59128;DHT22;44912;52.754;5.994;2022-08-01T00:52:40;18.20;99.90
59128;DHT22;44912;52.754;5.994;2022-08-01T00:55:07;18.10;99.90
59128;DHT22;44912;52.754;5.994;2022-08-01T00:57:33;18.10;99.90
59128;DHT22;44912;52.754;5.994;2022-08-01T00:59:58;18.10;99.90
59128;DHT22;44912;52.754;5.994;2022-08-01T01:02:24;18.10;99.90
59128;DHT22;44912;52.754;5.994;2022-08-01T01:04:49;18.10;99.90
59128;DHT22;44912;52.754;5.994;2022-08-01T01:10:17;18.10;99.90
59128;DHT22;44912;52.754;5.994;2022-08-01T01:12:52;18.10;99.90
59128;DHT22;44912;52.754;5.994;2022-08-01T01:15:29;18.10;99.90
59128;DHT22;44912;52.754;5.994;2022-08-01T01:18:23;18.10;99.90
59128;DHT22;44912;52.754;5.994;2022-08-01T01:21:03;18.10;99.90
59128;DHT22;44912;52.754;5.994;2022-08-01T01:26:36;18.10;99.90
59128;DHT22;44912;52.754;5.994;2022-08-01T01:29:08;18.10;99.90
59128;DHT22;44912;52.754;5.994;2022-08-01T01:31:43;18.00;99.90
59128;DHT22;44912;52.754;5.994;2022-08-01T01:34:11;18.10;99.90
59128;DHT22;44912;52.754;5.994;2022-08-01T01:36:39;18.10;99.90
59128;DHT22;44912;52.754;5.994;2022-08-01T01:39:05;18.00;99.90
59128;DHT22;44912;52.754;5.994;2022-08-01T01:41:32;18.10;99.90
59128;DHT22;44912;52.754;5.994;2022-08-01T01:44:01;18.10;99.90
59128;DHT22;44912;52.754;5.994;2022-08-01T01:46:29;18.10;99.90
59128;DHT22;44912;52.754;5.994;2022-08-01T01:48:57;18.10;99.90
59128;DHT22;44912;52.754;5.994;2022-08-01T01:51:25;18.10;99.90
59128;DHT22;44912;52.754;5.994;2022-08-01T01:53:53;18.10;99.90
59128;DHT22;44912;52.754;5.994;2022-08-01T01:56:20;18.10;99.90
59128;DHT22;44912;52.754;5.994;2022-08-01T01:58:51;18.10;99.90
59128;DHT22;44912;52.754;5.994;2022-08-01T02:01:18;18.10;99.90
59128;DHT22;44912;52.754;5.994;2022-08-01T02:03:46;18.10;99.90
59128;DHT22;44912;52.754;5.994;2022-08-01T02:06:13;18.10;99.90
59128;DHT22;44912;52.754;5.994;2022-08-01T02:08:40;18.10;99.90
59128;DHT22;44912;52.754;5.994;2022-08-01T02:11:07;18.10;99.90
59128;DHT22;44912;52.754;5.994;2022-08-01T02:13:58;18.10;99.90
59128;DHT22;44912;52.754;5.994;2022-08-01T02:16:28;18.00;99.90
59128;DHT22;44912;52.754;5.994;2022-08-01T02:18:55;18.00;99.90
59128;DHT22;44912;52.754;5.994;2022-08-01T02:21:26;18.00;99.90
59128;DHT22;44912;52.754;5.994;2022-08-01T02:23:54;18.00;99.90
59128;DHT22;44912;52.754;5.994;2022-08-01T02:26:21;18.00;99.90
59128;DHT22;44912;52.754;5.994;2022-08-01T02:28:52;18.00;99.90
59128;DHT22;44912;52.754;5.994;2022-08-01T02:31:21;18.00;99.90
59128;DHT22;44912;52.754;5.994;2022-08-01T02:33:58;18.00;99.90
59128;DHT22;44912;52.754;5.994;2022-08-01T02:36:28;18.00;99.90
59128;DHT22;44912;52.754;5.994;2022-08-01T02:38:56;18.00;99.90
59128;DHT22;44912;52.754;5.994;2022-08-01T02:41:26;18.00;99.90
59128;DHT22;44912;52.754;5.994;2022-08-01T02:43:53;18.00;99.90
59128;DHT22;44912;52.754;5.994;2022-08-01T02:46:26;18.00;99.90
59128;DHT22;44912;52.754;5.994;2022-08-01T02:48:55;18.00;99.90
59128;DHT22;44912;52.754;5.994;2022-08-01T02:51:24;18.00;99.90
59128;DHT22;44912;52.754;5.994;2022-08-01T02:53:50;18.00;99.90
59128;DHT22;44912;52.754;5.994;2022-08-01T02:56:17;18.00;99.90
59128;DHT22;44912;52.754;5.994;2022-08-01T02:58:44;18.00;99.90
59128;DHT22;44912;52.754;5.994;2022-08-01T03:01:12;18.00;99.90
59128;DHT22;44912;52.754;5.994;2022-08-01T03:03:38;18.00;99.90
59128;DHT22;44912;52.754;5.994;2022-08-01T03:06:04;18.00;99.90
59128;DHT22;44912;52.754;5.994;2022-08-01T03:08:31;18.00;99.90
59128;DHT22;44912;52.754;5.994;2022-08-01T03:10:59;18.00;99.90
59128;DHT22;44912;52.754;5.994;2022-08-01T03:13:27;18.00;99.90
59128;DHT22;44912;52.754;5.994;2022-08-01T03:15:55;18.00;99.90
59128;DHT22;44912;52.754;5.994;2022-08-01T03:18:24;18.00;99.90
59128;DHT22;44912;52.754;5.994;2022-08-01T03:20:52;18.00;99.90
59128;DHT22;44912;52.754;5.994;2022-08-01T03:23:19;17.90;99.90
59128;DHT22;44912;52.754;5.994;2022-08-01T03:25:47;17.90;99.90
59128;DHT22;44912;52.754;5.994;2022-08-01T03:28:16;17.90;99.90
59128;DHT22;44912;52.754;5.994;2022-08-01T03:30:42;17.90;99.90
59128;DHT22;44912;52.754;5.994;2022-08-01T03:33:08;17.90;99.90
59128;DHT22;44912;52.754;5.994;2022-08-01T03:35:37;17.90;99.90
59128;DHT22;44912;52.754;5.994;2022-08-01T03:38:05;17.90;99.90
59128;DHT22;44912;52.754;5.994;2022-08-01T03:40:40;17.90;99.90
59128;DHT22;44912;52.754;5.994;2022-08-01T03:43:11;17.90;99.90
59128;DHT22;44912;52.754;5.994;2022-08-01T03:45:40;17.90;99.90
59128;DHT22;44912;52.754;5.994;2022-08-01T03:48:18;17.90;99.90
59128;DHT22;44912;52.754;5.994;2022-08-01T03:50:47;17.90;99.90
59128;DHT22;44912;52.754;5.994;2022-08-01T03:53:14;17.90;99.90
59128;DHT22;44912;52.754;5.994;2022-08-01T03:55:42;17.90;99.90
59128;DHT22;44912;52.754;5.994;2022-08-01T03:58:09;17.80;99.90
59128;DHT22;44912;52.754;5.994;2022-08-01T04:00:37;17.80;99.90
59128;DHT22;44912;52.754;5.994;2022-08-01T04:03:12;17.80;99.90
59128;DHT22;44912;52.754;5.994;2022-08-01T04:05:42;17.80;99.90
59128;DHT22;44912;52.754;5.994;2022-08-01T04:08:08;17.80;99.90
59128;DHT22;44912;52.754;5.994;2022-08-01T04:10:34;17.80;99.90
59128;DHT22;44912;52.754;5.994;2022-08-01T04:12:59;17.80;99.90
59128;DHT22;44912;52.754;5.994;2022-08-01T04:15:25;17.80;99.90
59128;DHT22;44912;52.754;5.994;2022-08-01T04:17:51;17.80;99.90
59128;DHT22;44912;52.754;5.994;2022-08-01T04:20:16;17.70;99.90
59128;DHT22;44912;52.754;5.994;2022-08-01T04:22:42;17.70;99.90
59128;DHT22;44912;52.754;5.994;2022-08-01T04:25:15;17.70;99.90
59128;DHT22;44912;52.754;5.994;2022-08-01T04:27:45;17.80;99.90
59128;DHT22;44912;52.754;5.994;2022-08-01T04:30:12;17.70;99.90
59128;DHT22;44912;52.754;5.994;2022-08-01T04:32:39;17.70;99.90
59128;DHT22;44912;52.754;5.994;2022-08-01T04:35:07;17.80;99.90
59128;DHT22;44912;52.754;5.994;2022-08-01T04:37:36;17.70;99.90
59128;DHT22;44912;52.754;5.994;2022-08-01T04:40:04;17.70;99.90
59128;DHT22;44912;52.754;5.994;2022-08-01T04:42:31;17.70;99.90
59128;DHT22;44912;52.754;5.994;2022-08-01T04:44:58;17.70;99.90
59128;DHT22;44912;52.754;5.994;2022-08-01T04:47:25;17.70;99.90
59128;DHT22;44912;52.754;5.994;2022-08-01T04:49:51;17.70;99.90
59128;DHT22;44912;52.754;5.994;2022-08-01T04:52:16;17.70;99.90
59128;DHT22;44912;52.754;5.994;2022-08-01T04:54:43;17.70;99.90
59128;DHT22;44912;52.754;5.994;2022-08-01T04:57:09;17.70;99.90
59128;DHT22;44912;52.754;5.994;2022-08-01T04:59:36;17.80;99.90
59128;DHT22;44912;52.754;5.994;2022-08-01T05:04:40;17.80;99.90
59128;DHT22;44912;52.754;5.994;2022-08-01T05:07:06;17.80;99.90
59128;DHT22;44912;52.754;5.994;2022-08-01T05:09:32;17.80;99.90
59128;DHT22;44912;52.754;5.994;2022-08-01T05:11:59;17.80;99.90
59128;DHT22;44912;52.754;5.994;2022-08-01T05:14:26;17.80;99.90
59128;DHT22;44912;52.754;5.994;2022-08-01T05:16:52;17.80;99.90
59128;DHT22;44912;52.754;5.994;2022-08-01T05:19:18;17.70;99.90
59128;DHT22;44912;52.754;5.994;2022-08-01T05:21:43;17.70;99.90
59128;DHT22;44912;52.754;5.994;2022-08-01T05:24:09;17.70;99.90
59128;DHT22;44912;52.754;5.994;2022-08-01T05:26:35;17.70;99.90
59128;DHT22;44912;52.754;5.994;2022-08-01T05:29:00;17.70;99.90
59128;DHT22;44912;52.754;5.994;2022-08-01T05:31:26;17.60;99.90
59128;DHT22;44912;52.754;5.994;2022-08-01T05:33:51;17.60;99.90
59128;DHT22;44912;52.754;5.994;2022-08-01T05:36:17;17.60;99.90
59128;DHT22;44912;52.754;5.994;2022-08-01T05:38:42;17.60;99.90
59128;DHT22;44912;52.754;5.994;2022-08-01T05:41:08;17.60;99.90
59128;DHT22;44912;52.754;5.994;2022-08-01T05:43:35;17.60;99.90
59128;DHT22;44912;52.754;5.994;2022-08-01T05:46:00;17.60;99.90
59128;DHT22;44912;52.754;5.994;2022-08-01T05:48:26;17.60;99.90
59128;DHT22;44912;52.754;5.994;2022-08-01T05:50:53;17.60;99.90
59128;DHT22;44912;52.754;5.994;2022-08-01T05:53:19;17.60;99.90
59128;DHT22;44912;52.754;5.994;2022-08-01T05:55:45;17.70;99.90
59128;DHT22;44912;52.754;5.994;2022-08-01T05:58:11;17.60;99.90
59128;DHT22;44912;52.754;5.994;2022-08-01T06:00:36;17.60;99.90
59128;DHT22;44912;52.754;5.994;2022-08-01T06:03:02;17.60;99.90
59128;DHT22;44912;52.754;5.994;2022-08-01T06:05:27;17.60;99.90
59128;DHT22;44912;52.754;5.994;2022-08-01T06:07:53;17.60;99.90
59128;DHT22;44912;52.754;5.994;2022-08-01T06:10:19;17.60;99.90
59128;DHT22;44912;52.754;5.994;2022-08-01T06:12:44;17.60;99.90
59128;DHT22;44912;52.754;5.994;2022-08-01T06:15:11;17.60;99.90
59128;DHT22;44912;52.754;5.994;2022-08-01T06:17:36;17.60;99.90
59128;DHT22;44912;52.754;5.994;2022-08-01T06:20:03;17.60;99.90
59128;DHT22;44912;52.754;5.994;2022-08-01T06:22:28;17.60;99.90
59128;DHT22;44912;52.754;5.994;2022-08-01T06:24:54;17.70;99.90
59128;DHT22;44912;52.754;5.994;2022-08-01T06:27:20;17.70;99.90
59128;DHT22;44912;52.754;5.994;2022-08-01T06:29:45;17.70;99.90
59128;DHT22;44912;52.754;5.994;2022-08-01T06:32:11;17.70;99.90
59128;DHT22;44912;52.754;5.994;2022-08-01T06:34:36;17.70;99.90
59128;DHT22;44912;52.754;5.994;2022-08-01T06:37:02;17.80;99.90
59128;DHT22;44912;52.754;5.994;2022-08-01T06:39:27;17.80;99.90
59128;DHT22;44912;52.754;5.994;2022-08-01T06:41:53;17.90;99.90
59128;DHT22;44912;52.754;5.994;2022-08-01T06:44:18;17.90;99.90
59128;DHT22;44912;52.754;5.994;2022-08-01T06:46:44;18.00;99.90
59128;DHT22;44912;52.754;5.994;2022-08-01T06:49:10;18.00;99.90
59128;DHT22;44912;52.754;5.994;2022-08-01T06:51:35;18.00;99.90
59128;DHT22;44912;52.754;5.994;2022-08-01T06:54:01;18.00;99.90
59128;DHT22;44912;52.754;5.994;2022-08-01T06:56:26;18.10;99.90
59128;DHT22;44912;52.754;5.994;2022-08-01T06:58:52;18.10;99.90
59128;DHT22;44912;52.754;5.994;2022-08-01T07:01:18;18.10;99.90
59128;DHT22;44912;52.754;5.994;2022-08-01T07:03:43;18.20;99.90
59128;DHT22;44912;52.754;5.994;2022-08-01T07:06:09;18.20;99.90
59128;DHT22;44912;52.754;5.994;2022-08-01T07:08:36;18.20;99.90
59128;DHT22;44912;52.754;5.994;2022-08-01T07:11:01;18.30;99.90
59128;DHT22;44912;52.754;5.994;2022-08-01T07:13:29;18.30;99.90
59128;DHT22;44912;52.754;5.994;2022-08-01T07:15:56;18.30;99.90
59128;DHT22;44912;52.754;5.994;2022-08-01T07:18:22;18.30;99.90
59128;DHT22;44912;52.754;5.994;2022-08-01T07:20:48;18.40;99.90
59128;DHT22;44912;52.754;5.994;2022-08-01T07:23:14;18.50;99.90
59128;DHT22;44912;52.754;5.994;2022-08-01T07:25:40;18.60;99.90
59128;DHT22;44912;52.754;5.994;2022-08-01T07:28:05;18.70;99.90
59128;DHT22;44912;52.754;5.994;2022-08-01T07:30:31;18.70;99.90
59128;DHT22;44912;52.754;5.994;2022-08-01T07:32:57;18.70;99.90
59128;DHT22;44912;52.754;5.994;2022-08-01T07:35:23;18.70;99.90
59128;DHT22;44912;52.754;5.994;2022-08-01T07:37:48;18.80;99.90
59128;DHT22;44912;52.754;5.994;2022-08-01T07:40:15;18.80;99.90
59128;DHT22;44912;52.754;5.994;2022-08-01T07:42:40;18.90;99.90
59128;DHT22;44912;52.754;5.994;2022-08-01T07:45:09;18.90;99.90
59128;DHT22;44912;52.754;5.994;2022-08-01T07:47:35;19.00;99.90
59128;DHT22;44912;52.754;5.994;2022-08-01T07:50:02;19.10;99.90
59128;DHT22;44912;52.754;5.994;2022-08-01T07:52:28;19.10;99.90
59128;DHT22;44912;52.754;5.994;2022-08-01T07:54:55;19.20;99.90
59128;DHT22;44912;52.754;5.994;2022-08-01T07:57:22;19.20;99.90
59128;DHT22;44912;52.754;5.994;2022-08-01T07:59:48;19.30;99.90
59128;DHT22;44912;52.754;5.994;2022-08-01T08:02:13;19.50;99.90
59128;DHT22;44912;52.754;5.994;2022-08-01T08:04:39;19.70;99.90
59128;DHT22;44912;52.754;5.994;2022-08-01T08:07:05;19.80;99.90
59128;DHT22;44912;52.754;5.994;2022-08-01T08:09:30;19.90;99.90
59128;DHT22;44912;52.754;5.994;2022-08-01T08:11:56;20.20;99.90
59128;DHT22;44912;52.754;5.994;2022-08-01T08:14:21;20.30;99.90
59128;DHT22;44912;52.754;5.994;2022-08-01T08:16:48;20.40;99.90
59128;DHT22;44912;52.754;5.994;2022-08-01T08:19:13;20.50;99.90
59128;DHT22;44912;52.754;5.994;2022-08-01T08:21:39;20.50;99.90
59128;DHT22;44912;52.754;5.994;2022-08-01T08:24:06;20.50;99.90
59128;DHT22;44912;52.754;5.994;2022-08-01T08:26:53;20.40;99.90
59128;DHT22;44912;52.754;5.994;2022-08-01T08:29:20;20.40;99.90
59128;DHT22;44912;52.754;5.994;2022-08-01T08:31:46;20.30;99.90
59128;DHT22;44912;52.754;5.994;2022-08-01T08:34:11;20.20;99.90
59128;DHT22;44912;52.754;5.994;2022-08-01T08:36:37;20.00;99.90
59128;DHT22;44912;52.754;5.994;2022-08-01T08:39:03;20.00;99.90
59128;DHT22;44912;52.754;5.994;2022-08-01T08:41:30;19.90;99.90
59128;DHT22;44912;52.754;5.994;2022-08-01T08:43:56;20.00;99.90
59128;DHT22;44912;52.754;5.994;2022-08-01T08:46:27;20.00;99.90
59128;DHT22;44912;52.754;5.994;2022-08-01T08:48:54;20.10;99.90
59128;DHT22;44912;52.754;5.994;2022-08-01T08:51:21;20.20;99.90
59128;DHT22;44912;52.754;5.994;2022-08-01T08:53:49;20.20;99.90
59128;DHT22;44912;52.754;5.994;2022-08-01T08:56:16;20.30;99.90
59128;DHT22;44912;52.754;5.994;2022-08-01T08:58:44;20.30;99.90
59128;DHT22;44912;52.754;5.994;2022-08-01T09:01:10;20.40;99.90
59128;DHT22;44912;52.754;5.994;2022-08-01T09:03:38;20.50;99.90
59128;DHT22;44912;52.754;5.994;2022-08-01T09:06:05;20.60;99.90
59128;DHT22;44912;52.754;5.994;2022-08-01T09:08:30;20.80;99.90
59128;DHT22;44912;52.754;5.994;2022-08-01T09:10:56;20.80;99.90
59128;DHT22;44912;52.754;5.994;2022-08-01T09:13:21;20.90;99.90
59128;DHT22;44912;52.754;5.994;2022-08-01T09:15:55;21.00;99.90
59128;DHT22;44912;52.754;5.994;2022-08-01T09:18:42;21.10;99.90
59128;DHT22;44912;52.754;5.994;2022-08-01T09:21:11;21.20;99.90
59128;DHT22;44912;52.754;5.994;2022-08-01T09:23:40;21.20;99.90
59128;DHT22;44912;52.754;5.994;2022-08-01T09:26:11;21.30;99.90
59128;DHT22;44912;52.754;5.994;2022-08-01T09:28:37;21.30;99.90
59128;DHT22;44912;52.754;5.994;2022-08-01T09:31:08;21.10;99.90
59128;DHT22;44912;52.754;5.994;2022-08-01T09:34:01;20.90;99.90
59128;DHT22;44912;52.754;5.994;2022-08-01T09:36:53;20.80;99.90
59128;DHT22;44912;52.754;5.994;2022-08-01T09:39:27;20.90;99.90
59128;DHT22;44912;52.754;5.994;2022-08-01T09:41:55;20.90;99.90
59128;DHT22;44912;52.754;5.994;2022-08-01T09:44:39;21.10;99.90
59128;DHT22;44912;52.754;5.994;2022-08-01T09:47:05;21.20;99.90
59128;DHT22;44912;52.754;5.994;2022-08-01T09:49:35;21.20;99.90
59128;DHT22;44912;52.754;5.994;2022-08-01T09:52:14;21.30;99.90
59128;DHT22;44912;52.754;5.994;2022-08-01T09:54:40;21.50;99.90
59128;DHT22;44912;52.754;5.994;2022-08-01T09:57:17;21.70;99.90
59128;DHT22;44912;52.754;5.994;2022-08-01T09:59:45;21.90;99.90
59128;DHT22;44912;52.754;5.994;2022-08-01T10:02:13;22.00;99.90
59128;DHT22;44912;52.754;5.994;2022-08-01T10:04:51;22.10;99.90
59128;DHT22;44912;52.754;5.994;2022-08-01T10:07:18;22.10;99.90
59128;DHT22;44912;52.754;5.994;2022-08-01T10:09:44;22.00;99.90
59128;DHT22;44912;52.754;5.994;2022-08-01T10:12:12;21.80;99.90
59128;DHT22;44912;52.754;5.994;2022-08-01T10:14:39;21.60;99.90
59128;DHT22;44912;52.754;5.994;2022-08-01T10:17:07;21.70;99.90
59128;DHT22;44912;52.754;5.994;2022-08-01T10:19:34;21.80;99.90
59128;DHT22;44912;52.754;5.994;2022-08-01T10:22:01;22.00;99.90
59128;DHT22;44912;52.754;5.994;2022-08-01T10:24:29;22.10;99.90
59128;DHT22;44912;52.754;5.994;2022-08-01T10:27:02;22.00;99.90
59128;DHT22;44912;52.754;5.994;2022-08-01T10:29:31;22.10;99.90
59128;DHT22;44912;52.754;5.994;2022-08-01T10:31:57;22.10;99.90
59128;DHT22;44912;52.754;5.994;2022-08-01T10:34:23;21.90;99.90
59128;DHT22;44912;52.754;5.994;2022-08-01T10:36:49;21.50;99.90
59128;DHT22;44912;52.754;5.994;2022-08-01T10:39:15;21.30;99.90
59128;DHT22;44912;52.754;5.994;2022-08-01T10:41:42;21.00;99.90
59128;DHT22;44912;52.754;5.994;2022-08-01T10:44:08;20.90;99.90
59128;DHT22;44912;52.754;5.994;2022-08-01T10:46:38;20.90;99.90
59128;DHT22;44912;52.754;5.994;2022-08-01T10:49:15;20.90;99.90
59128;DHT22;44912;52.754;5.994;2022-08-01T10:51:42;20.80;99.90
59128;DHT22;44912;52.754;5.994;2022-08-01T10:54:12;20.80;99.90
59128;DHT22;44912;52.754;5.994;2022-08-01T10:56:40;20.80;99.90
59128;DHT22;44912;52.754;5.994;2022-08-01T10:59:07;20.80;99.90
59128;DHT22;44912;52.754;5.994;2022-08-01T11:01:33;20.80;99.90
59128;DHT22;44912;52.754;5.994;2022-08-01T11:04:11;20.80;99.90
59128;DHT22;44912;52.754;5.994;2022-08-01T11:11:57;21.00;99.90
59128;DHT22;44912;52.754;5.994;2022-08-01T11:14:23;21.00;99.90
59128;DHT22;44912;52.754;5.994;2022-08-01T11:16:49;20.90;99.90
59128;DHT22;44912;52.754;5.994;2022-08-01T11:19:14;21.00;99.90
59128;DHT22;44912;52.754;5.994;2022-08-01T11:27:22;21.70;99.90
59128;DHT22;44912;52.754;5.994;2022-08-01T11:32:55;21.60;99.90
59128;DHT22;44912;52.754;5.994;2022-08-01T11:35:22;21.30;99.90
59128;DHT22;44912;52.754;5.994;2022-08-01T11:37:53;21.20;99.90
59128;DHT22;44912;52.754;5.994;2022-08-01T11:40:28;21.40;99.90
59128;DHT22;44912;52.754;5.994;2022-08-01T11:45:52;21.50;99.90
59128;DHT22;44912;52.754;5.994;2022-08-01T11:48:25;21.50;99.90
59128;DHT22;44912;52.754;5.994;2022-08-01T11:50:52;21.60;99.90
59128;DHT22;44912;52.754;5.994;2022-08-01T11:53:19;21.60;99.90
59128;DHT22;44912;52.754;5.994;2022-08-01T11:55:50;21.60;99.90
59128;DHT22;44912;52.754;5.994;2022-08-01T11:58:24;21.70;99.90
59128;DHT22;44912;52.754;5.994;2022-08-01T12:00:54;21.90;99.90
59128;DHT22;44912;52.754;5.994;2022-08-01T12:03:29;21.90;99.90
59128;DHT22;44912;52.754;5.994;2022-08-01T12:05:55;21.70;99.90
59128;DHT22;44912;52.754;5.994;2022-08-01T12:08:31;21.50;99.90
59128;DHT22;44912;52.754;5.994;2022-08-01T12:11:03;21.50;99.90
59128;DHT22;44912;52.754;5.994;2022-08-01T12:13:40;21.70;99.90
59128;DHT22;44912;52.754;5.994;2022-08-01T12:16:08;22.00;99.90
59128;DHT22;44912;52.754;5.994;2022-08-01T12:18:41;22.10;99.90
59128;DHT22;44912;52.754;5.994;2022-08-01T12:21:07;22.10;99.90
59128;DHT22;44912;52.754;5.994;2022-08-01T12:23:33;22.20;99.90
59128;DHT22;44912;52.754;5.994;2022-08-01T12:25:58;22.40;99.90
59128;DHT22;44912;52.754;5.994;2022-08-01T12:28:25;22.70;99.90
59128;DHT22;44912;52.754;5.994;2022-08-01T12:30:51;23.20;99.90
59128;DHT22;44912;52.754;5.994;2022-08-01T12:33:18;23.30;99.90
59128;DHT22;44912;52.754;5.994;2022-08-01T12:35:44;23.40;99.90
59128;DHT22;44912;52.754;5.994;2022-08-01T12:38:20;23.60;99.90
59128;DHT22;44912;52.754;5.994;2022-08-01T12:40:50;23.70;99.90
59128;DHT22;44912;52.754;5.994;2022-08-01T12:43:17;23.50;99.90
59128;DHT22;44912;52.754;5.994;2022-08-01T12:45:45;23.40;99.90
59128;DHT22;44912;52.754;5.994;2022-08-01T12:48:13;22.90;99.90
59128;DHT22;44912;52.754;5.994;2022-08-01T12:50:48;22.50;99.90
59128;DHT22;44912;52.754;5.994;2022-08-01T12:53:15;22.20;99.90
59128;DHT22;44912;52.754;5.994;2022-08-01T12:55:54;22.00;99.90
59128;DHT22;44912;52.754;5.994;2022-08-01T12:58:21;21.80;99.90
59128;DHT22;44912;52.754;5.994;2022-08-01T13:00:48;21.60;99.90
59128;DHT22;44912;52.754;5.994;2022-08-01T13:03:17;21.40;99.90
59128;DHT22;44912;52.754;5.994;2022-08-01T13:05:45;21.20;99.90
59128;DHT22;44912;52.754;5.994;2022-08-01T13:08:12;21.30;99.90
59128;DHT22;44912;52.754;5.994;2022-08-01T13:10:38;21.30;99.90
59128;DHT22;44912;52.754;5.994;2022-08-01T13:13:04;21.40;99.90
59128;DHT22;44912;52.754;5.994;2022-08-01T13:15:31;21.40;99.90
59128;DHT22;44912;52.754;5.994;2022-08-01T13:17:58;21.50;99.90
59128;DHT22;44912;52.754;5.994;2022-08-01T13:20:30;21.60;99.90
59128;DHT22;44912;52.754;5.994;2022-08-01T13:23:10;21.60;99.90
59128;DHT22;44912;52.754;5.994;2022-08-01T13:25:50;21.70;99.90
59128;DHT22;44912;52.754;5.994;2022-08-01T13:28:21;21.80;99.90
59128;DHT22;44912;52.754;5.994;2022-08-01T13:30:55;22.00;99.90
59128;DHT22;44912;52.754;5.994;2022-08-01T13:33:21;22.10;99.90
59128;DHT22;44912;52.754;5.994;2022-08-01T13:35:53;22.20;99.90
59128;DHT22;44912;52.754;5.994;2022-08-01T13:38:18;22.50;99.90
59128;DHT22;44912;52.754;5.994;2022-08-01T13:40:44;22.70;99.90
59128;DHT22;44912;52.754;5.994;2022-08-01T13:43:10;22.60;99.90
59128;DHT22;44912;52.754;5.994;2022-08-01T13:45:36;22.60;99.90
59128;DHT22;44912;52.754;5.994;2022-08-01T13:48:01;22.70;99.90
59128;DHT22;44912;52.754;5.994;2022-08-01T13:50:27;22.80;99.90
59128;DHT22;44912;52.754;5.994;2022-08-01T13:52:53;23.20;99.90
59128;DHT22;44912;52.754;5.994;2022-08-01T13:55:19;23.20;99.90
59128;DHT22;44912;52.754;5.994;2022-08-01T13:57:44;23.00;99.90
59128;DHT22;44912;52.754;5.994;2022-08-01T14:00:10;22.70;99.90
59128;DHT22;44912;52.754;5.994;2022-08-01T14:02:36;22.50;99.90
59128;DHT22;44912;52.754;5.994;2022-08-01T14:05:02;22.30;99.90
59128;DHT22;44912;52.754;5.994;2022-08-01T14:07:27;22.30;99.90
59128;DHT22;44912;52.754;5.994;2022-08-01T14:09:53;22.20;99.90
59128;DHT22;44912;52.754;5.994;2022-08-01T14:12:19;22.30;99.90
59128;DHT22;44912;52.754;5.994;2022-08-01T14:14:44;22.40;99.90
59128;DHT22;44912;52.754;5.994;2022-08-01T14:17:10;22.40;99.90
59128;DHT22;44912;52.754;5.994;2022-08-01T14:19:35;22.50;99.90
59128;DHT22;44912;52.754;5.994;2022-08-01T14:22:01;22.50;99.90
59128;DHT22;44912;52.754;5.994;2022-08-01T14:24:26;22.60;99.90
59128;DHT22;44912;52.754;5.994;2022-08-01T14:26:52;22.70;99.90
59128;DHT22;44912;52.754;5.994;2022-08-01T14:29:18;22.90;99.90
59128;DHT22;44912;52.754;5.994;2022-08-01T14:31:44;23.00;99.90
59128;DHT22;44912;52.754;5.994;2022-08-01T14:34:09;22.70;99.90
59128;DHT22;44912;52.754;5.994;2022-08-01T14:36:35;22.20;99.90
59128;DHT22;44912;52.754;5.994;2022-08-01T14:39:00;22.10;99.90
59128;DHT22;44912;52.754;5.994;2022-08-01T14:41:27;22.00;99.90
59128;DHT22;44912;52.754;5.994;2022-08-01T14:43:52;21.90;99.90
59128;DHT22;44912;52.754;5.994;2022-08-01T14:46:18;21.80;99.90
59128;DHT22;44912;52.754;5.994;2022-08-01T14:48:43;21.90;99.90
59128;DHT22;44912;52.754;5.994;2022-08-01T14:51:09;21.90;99.90
59128;DHT22;44912;52.754;5.994;2022-08-01T14:53:35;22.10;99.90
59128;DHT22;44912;52.754;5.994;2022-08-01T14:56:02;22.40;99.90
59128;DHT22;44912;52.754;5.994;2022-08-01T14:58:29;22.50;99.90
59128;DHT22;44912;52.754;5.994;2022-08-01T15:00:54;22.50;99.90
59128;DHT22;44912;52.754;5.994;2022-08-01T15:03:23;22.60;99.90
59128;DHT22;44912;52.754;5.994;2022-08-01T15:05:48;22.50;99.90
59128;DHT22;44912;52.754;5.994;2022-08-01T15:08:14;22.50;99.90
59128;DHT22;44912;52.754;5.994;2022-08-01T15:10:40;22.40;99.90
59128;DHT22;44912;52.754;5.994;2022-08-01T15:13:05;22.50;99.90
59128;DHT22;44912;52.754;5.994;2022-08-01T15:15:31;22.60;99.90
59128;DHT22;44912;52.754;5.994;2022-08-01T15:17:57;22.50;99.90
59128;DHT22;44912;52.754;5.994;2022-08-01T15:20:23;22.40;99.90
59128;DHT22;44912;52.754;5.994;2022-08-01T15:22:48;22.40;99.90
59128;DHT22;44912;52.754;5.994;2022-08-01T15:25:14;22.40;99.90
59128;DHT22;44912;52.754;5.994;2022-08-01T15:27:40;22.70;99.90
59128;DHT22;44912;52.754;5.994;2022-08-01T15:30:06;22.90;99.90
59128;DHT22;44912;52.754;5.994;2022-08-01T15:32:31;23.10;99.90
59128;DHT22;44912;52.754;5.994;2022-08-01T15:34:57;23.30;99.90
59128;DHT22;44912;52.754;5.994;2022-08-01T15:37:22;23.40;99.90
59128;DHT22;44912;52.754;5.994;2022-08-01T15:39:48;23.60;99.90
59128;DHT22;44912;52.754;5.994;2022-08-01T15:42:15;23.80;99.90
59128;DHT22;44912;52.754;5.994;2022-08-01T15:44:41;24.00;99.90
59128;DHT22;44912;52.754;5.994;2022-08-01T15:47:08;23.90;99.90
59128;DHT22;44912;52.754;5.994;2022-08-01T15:49:35;23.60;99.90
59128;DHT22;44912;52.754;5.994;2022-08-01T15:52:03;23.30;99.90
59128;DHT22;44912;52.754;5.994;2022-08-01T15:54:29;23.30;99.90
59128;DHT22;44912;52.754;5.994;2022-08-01T15:56:54;23.40;99.90
59128;DHT22;44912;52.754;5.994;2022-08-01T15:59:20;23.50;99.90